createdAt,value
2023-03-05T00:00:03.992Z,85.50
2023-03-05T00:02:18.305Z,86.00
2023-03-05T00:04:26.062Z,85.80
2023-03-05T00:06:35.822Z,85.90
2023-03-05T00:08:41.741Z,85.90
2023-03-05T00:10:46.631Z,85.70
2023-03-05T00:12:52.500Z,86.10
2023-03-05T00:14:57.434Z,86.10
2023-03-05T00:17:03.397Z,86.50
2023-03-05T00:19:09.038Z,86.30
2023-03-05T00:21:28.624Z,86.40
2023-03-05T00:23:33.584Z,86.40
2023-03-05T00:25:41.864Z,86.40
2023-03-05T00:27:46.801Z,86.70
2023-03-05T00:29:52.433Z,86.70
2023-03-05T00:31:57.771Z,86.70
2023-03-05T00:34:06.941Z,86.80
2023-03-05T00:36:13.578Z,86.80
2023-03-05T00:38:21.841Z,86.70
2023-03-05T00:40:26.931Z,86.40
2023-03-05T00:42:33.641Z,86.60
2023-03-05T00:44:39.307Z,86.30
2023-03-05T00:46:44.738Z,86.90
2023-03-05T00:50:56.682Z,85.90
2023-03-05T00:53:03.005Z,85.90
2023-03-05T00:55:11.732Z,86.10
2023-03-05T00:57:17.003Z,86.30
2023-03-05T01:01:29.426Z,86.20
2023-03-05T01:03:36.069Z,85.90
2023-03-05T01:05:41.612Z,85.50
2023-03-05T01:07:47.469Z,85.50
2023-03-05T01:09:52.755Z,85.10
2023-03-05T01:12:00.766Z,85.50
2023-03-05T01:14:06.968Z,85.00
2023-03-05T01:16:14.539Z,85.10
2023-03-05T01:18:23.436Z,85.20
2023-03-05T01:20:28.332Z,85.00
2023-03-05T01:22:34.138Z,84.60
2023-03-05T01:24:38.992Z,85.00
2023-03-05T01:26:45.064Z,84.50
2023-03-05T01:28:52.516Z,84.60
2023-03-05T01:30:57.897Z,85.00
2023-03-05T01:33:04.240Z,84.90
2023-03-05T01:35:18.327Z,85.30
2023-03-05T01:37:23.244Z,84.90
2023-03-05T01:39:28.274Z,85.10
2023-03-05T01:41:34.426Z,85.40
2023-03-05T01:43:39.440Z,85.40
2023-03-05T01:46:36.402Z,85.10
2023-03-05T01:48:45.405Z,84.70
2023-03-05T01:50:50.540Z,84.60
2023-03-05T01:53:01.281Z,84.10
2023-03-05T01:55:10.843Z,84.10
2023-03-05T01:57:21.190Z,83.80
2023-03-05T01:59:28.381Z,83.90
2023-03-05T02:01:46.754Z,84.40
2023-03-05T02:03:54.280Z,84.40
2023-03-05T02:05:59.424Z,84.80
2023-03-05T02:08:07.696Z,84.10
2023-03-05T02:10:21.960Z,83.60
2023-03-05T02:12:27.582Z,83.40
2023-03-05T02:14:32.533Z,83.60
2023-03-05T02:16:39.768Z,83.60
2023-03-05T02:18:45.778Z,82.30
2023-03-05T02:20:57.018Z,82.50
2023-03-05T02:23:04.466Z,82.60
2023-03-05T02:25:22.461Z,82.20
2023-03-05T02:27:35.913Z,81.80
2023-03-05T02:29:47.848Z,81.90
2023-03-05T02:31:53.110Z,82.60
2023-03-05T02:33:58.756Z,82.10
2023-03-05T02:36:04.431Z,81.90
2023-03-05T02:38:12.014Z,82.50
2023-03-05T02:40:18.384Z,81.90
2023-03-05T02:42:23.864Z,81.10
2023-03-05T02:44:29.586Z,82.20
2023-03-05T02:46:34.988Z,82.10
2023-03-05T02:48:40.753Z,82.10
2023-03-05T02:50:50.371Z,82.10
2023-03-05T02:52:55.682Z,82.00
2023-03-05T02:55:03.434Z,82.20
2023-03-05T02:57:09.499Z,82.00
2023-03-05T02:59:14.398Z,82.40
2023-03-05T03:01:19.446Z,82.50
2023-03-05T03:03:24.943Z,82.70
2023-03-05T03:05:30.184Z,83.40
2023-03-05T03:07:37.492Z,83.30
2023-03-05T03:09:42.923Z,83.30
2023-03-05T03:11:50.816Z,82.10
2023-03-05T03:13:56.110Z,81.90
2023-03-05T03:16:06.506Z,81.90
2023-03-05T03:18:11.657Z,82.80
2023-03-05T03:20:20.849Z,83.70
2023-03-05T03:22:25.719Z,83.50
2023-03-05T03:24:32.778Z,83.30
2023-03-05T03:26:37.937Z,83.50
2023-03-05T03:28:45.819Z,84.10
2023-03-05T03:30:50.899Z,84.40
2023-03-05T03:32:56.516Z,85.00
2023-03-05T03:35:01.979Z,85.40
2023-03-05T03:37:07.434Z,85.50
2023-03-05T03:39:14.458Z,85.30
2023-03-05T03:41:22.437Z,85.30
2023-03-05T03:43:28.044Z,83.50
2023-03-05T03:47:43.336Z,84.10
2023-03-05T03:49:48.252Z,83.40
2023-03-05T03:51:55.873Z,83.20
2023-03-05T03:54:02.357Z,83.30
2023-03-05T03:56:08.549Z,83.20
2023-03-05T03:58:13.534Z,82.80
2023-03-05T04:00:20.914Z,82.70
2023-03-05T04:02:30.580Z,82.40
2023-03-05T04:04:35.536Z,82.70
2023-03-05T04:06:41.085Z,82.90
2023-03-05T04:08:46.571Z,82.20
2023-03-05T04:10:51.447Z,82.10
2023-03-05T04:12:56.676Z,82.10
2023-03-05T04:15:03.001Z,81.50
2023-03-05T04:17:08.018Z,81.90
2023-03-05T04:19:15.901Z,81.20
2023-03-05T04:21:21.376Z,81.40
2023-03-05T04:23:26.230Z,81.90
2023-03-05T04:25:31.706Z,81.20
2023-03-05T04:27:37.956Z,81.10
2023-03-05T04:29:43.238Z,80.90
2023-03-05T04:31:48.125Z,81.30
2023-03-05T04:33:53.653Z,81.40
2023-03-05T04:36:01.174Z,80.90
2023-03-05T04:38:06.777Z,81.20
2023-03-05T04:40:14.694Z,81.50
2023-03-05T04:42:21.171Z,81.80
2023-03-05T04:44:26.618Z,81.10
2023-03-05T04:46:31.524Z,81.40
2023-03-05T04:48:37.097Z,81.60
2023-03-05T04:50:42.730Z,80.90
2023-03-05T04:52:51.112Z,80.80
2023-03-05T04:54:57.598Z,80.70
2023-03-05T04:57:02.498Z,80.40
2023-03-05T04:59:07.850Z,80.60
2023-03-05T05:01:14.275Z,80.80
2023-03-05T05:03:19.208Z,81.00
2023-03-05T05:05:26.888Z,81.20
2023-03-05T05:07:33.117Z,81.90
2023-03-05T05:09:41.960Z,80.50
2023-03-05T05:11:47.560Z,80.90
2023-03-05T05:13:53.623Z,80.80
2023-03-05T05:15:59.123Z,81.20
2023-03-05T05:18:04.017Z,81.30
2023-03-05T05:20:11.604Z,81.30
2023-03-05T05:22:16.852Z,81.40
2023-03-05T05:24:21.735Z,81.60
2023-03-05T05:26:30.289Z,81.30
2023-03-05T05:28:35.403Z,80.90
2023-03-05T05:30:42.086Z,80.60
2023-03-05T05:32:47.330Z,81.20
2023-03-05T05:34:56.117Z,81.40
2023-03-05T05:37:02.001Z,81.40
2023-03-05T05:39:07.366Z,81.20
2023-03-05T05:41:15.018Z,81.10
2023-03-05T05:43:23.606Z,81.20
2023-03-05T05:45:28.670Z,80.70
2023-03-05T05:47:34.055Z,80.10
2023-03-05T05:49:39.388Z,79.50
2023-03-05T05:51:45.295Z,79.30
2023-03-05T05:53:50.719Z,79.50
2023-03-05T05:55:56.148Z,80.20
2023-03-05T05:58:01.408Z,79.80
2023-03-05T06:00:13.746Z,79.20
2023-03-05T06:02:20.505Z,79.60
2023-03-05T06:04:25.844Z,79.30
2023-03-05T06:06:31.709Z,78.90
2023-03-05T06:08:36.594Z,79.10
2023-03-05T06:10:41.528Z,79.90
2023-03-05T06:12:47.065Z,80.80
2023-03-05T06:14:52.651Z,79.70
2023-03-05T06:17:00.133Z,79.50
2023-03-05T06:19:05.752Z,78.60
2023-03-05T06:21:14.450Z,77.40
2023-03-05T06:23:19.367Z,77.80
2023-03-05T06:25:24.936Z,78.30
2023-03-05T06:27:29.986Z,77.80
2023-03-05T06:29:35.206Z,78.00
2023-03-05T06:31:41.292Z,77.40
2023-03-05T06:33:49.731Z,77.50
2023-03-05T06:35:54.663Z,78.30
2023-03-05T06:37:59.535Z,78.00
2023-03-05T06:40:05.953Z,77.60
2023-03-05T06:42:13.250Z,77.70
2023-03-05T06:44:18.439Z,77.60
2023-03-05T06:46:26.547Z,77.20
2023-03-05T06:48:31.573Z,77.70
2023-03-05T06:50:41.325Z,77.80
2023-03-05T06:52:46.248Z,77.30
2023-03-05T06:54:51.255Z,76.10
2023-03-05T06:56:56.859Z,76.50
2023-03-05T06:59:01.921Z,76.60
2023-03-05T07:01:09.354Z,77.00
2023-03-05T07:03:14.598Z,77.30
2023-03-05T07:05:20.682Z,77.70
2023-03-05T07:07:28.232Z,77.30
2023-03-05T07:09:33.859Z,77.30
2023-03-05T07:11:39.153Z,76.60
2023-03-05T07:13:46.166Z,77.70
2023-03-05T07:15:51.512Z,77.70
2023-03-05T07:17:56.984Z,77.60
2023-03-05T07:20:02.168Z,77.50
2023-03-05T07:22:09.316Z,76.50
2023-03-05T07:24:17.261Z,77.20
2023-03-05T07:28:29.271Z,76.80
2023-03-05T07:30:35.543Z,77.20
2023-03-05T07:32:41.384Z,76.30
2023-03-05T07:34:46.736Z,76.40
2023-03-05T07:36:54.560Z,76.80
2023-03-05T07:38:59.533Z,77.40
2023-03-05T07:41:10.415Z,76.90
2023-03-05T07:43:15.717Z,77.50
2023-03-05T07:45:22.171Z,75.50
2023-03-05T07:47:27.186Z,76.70
2023-03-05T07:49:32.094Z,78.00
2023-03-05T07:51:37.723Z,76.10
2023-03-05T07:53:42.622Z,76.20
2023-03-05T07:55:47.900Z,75.90
2023-03-05T07:57:55.819Z,75.40
2023-03-05T08:00:00.892Z,76.70
2023-03-05T08:02:05.808Z,75.30
2023-03-05T08:04:11.662Z,74.50
2023-03-05T08:06:17.073Z,74.90
2023-03-05T08:08:21.983Z,74.50
2023-03-05T08:10:26.872Z,74.80
2023-03-05T08:12:32.663Z,75.30
2023-03-05T08:14:41.456Z,73.30
2023-03-05T08:16:48.374Z,74.40
2023-03-05T08:18:56.819Z,74.40
2023-03-05T08:21:02.077Z,73.60
2023-03-05T08:23:07.267Z,73.70
2023-03-05T08:25:12.886Z,74.00
2023-03-05T08:27:17.762Z,75.20
2023-03-05T08:29:23.017Z,75.00
2023-03-05T08:31:32.848Z,74.50
2023-03-05T08:33:38.232Z,73.20
2023-03-05T08:35:43.807Z,73.90
2023-03-05T08:37:50.045Z,73.80
2023-03-05T08:39:56.278Z,74.40
2023-03-05T08:42:01.491Z,73.30
2023-03-05T08:44:07.564Z,72.70
2023-03-05T08:46:14.482Z,72.80
2023-03-05T08:48:22.007Z,72.00
2023-03-05T08:50:27.444Z,71.90
2023-03-05T08:52:32.353Z,73.00
2023-03-05T08:54:37.304Z,72.10
2023-03-05T08:56:42.407Z,71.40
2023-03-05T08:58:49.026Z,71.80
2023-03-05T09:00:54.745Z,71.60
2023-03-05T09:03:00.051Z,71.10
2023-03-05T09:05:08.661Z,71.80
2023-03-05T09:07:14.685Z,70.40
2023-03-05T09:09:21.504Z,72.00
2023-03-05T09:11:26.708Z,70.30
2023-03-05T09:13:31.678Z,73.00
2023-03-05T09:15:36.542Z,71.20
2023-03-05T09:17:43.133Z,70.70
2023-03-05T09:19:48.072Z,71.90
2023-03-05T09:21:57.108Z,72.30
2023-03-05T09:24:02.190Z,71.30
2023-03-05T09:26:09.176Z,71.30
2023-03-05T09:28:14.755Z,71.70
2023-03-05T09:30:20.578Z,72.50
2023-03-05T09:32:25.477Z,72.10
2023-03-05T09:34:30.393Z,72.20
2023-03-05T09:36:36.485Z,71.40
2023-03-05T09:38:43.948Z,72.20
2023-03-05T09:40:58.512Z,72.40
2023-03-05T09:43:12.132Z,71.50
2023-03-05T09:45:28.592Z,73.40
2023-03-05T09:47:57.176Z,71.00
2023-03-05T09:50:13.850Z,72.70
2023-03-05T09:52:24.278Z,73.20
2023-03-05T09:54:40.957Z,70.80
2023-03-05T09:56:50.666Z,70.50
2023-03-05T09:58:59.280Z,71.50
2023-03-05T10:01:07.031Z,73.30
2023-03-05T10:03:21.528Z,71.70
2023-03-05T10:05:34.137Z,69.50
2023-03-05T10:07:44.094Z,68.00
2023-03-05T10:09:58.985Z,67.80
2023-03-05T10:12:09.322Z,68.80
2023-03-05T10:14:21.255Z,70.30
2023-03-05T10:16:58.655Z,68.70
2023-03-05T10:19:12.824Z,68.90
2023-03-05T10:21:22.110Z,70.40
2023-03-05T10:23:47.669Z,67.90
2023-03-05T10:26:06.954Z,67.20
2023-03-05T10:28:20.150Z,68.90
2023-03-05T10:30:36.487Z,67.80
2023-03-05T10:32:53.009Z,67.50
2023-03-05T10:35:26.071Z,68.60
2023-03-05T10:38:03.651Z,67.60
2023-03-05T10:40:23.856Z,67.90
2023-03-05T10:42:40.544Z,68.10
2023-03-05T10:44:53.650Z,68.40
2023-03-05T10:47:02.457Z,69.00
2023-03-05T10:49:20.534Z,69.60
2023-03-05T10:51:36.953Z,69.90
2023-03-05T10:53:56.880Z,70.50
2023-03-05T10:56:04.801Z,70.90
2023-03-05T10:58:19.594Z,71.10
2023-03-05T11:00:27.803Z,70.20
2023-03-05T11:02:33.595Z,70.10
2023-03-05T11:04:42.504Z,70.70
2023-03-05T11:06:49.098Z,70.90
2023-03-05T11:08:54.934Z,72.00
2023-03-05T11:11:19.399Z,70.70
2023-03-05T11:13:31.060Z,70.50
2023-03-05T11:15:36.992Z,69.80
2023-03-05T11:17:47.863Z,68.50
2023-03-05T11:19:53.778Z,67.20
2023-03-05T11:22:20.843Z,69.30
2023-03-05T11:24:25.763Z,66.50
2023-03-05T11:26:30.671Z,69.80
2023-03-05T11:31:03.220Z,68.10
2023-03-05T11:33:13.008Z,67.00
2023-03-05T11:35:34.730Z,66.80
2023-03-05T11:37:39.665Z,65.50
2023-03-05T11:39:46.451Z,65.90
2023-03-05T11:41:55.185Z,64.70
2023-03-05T11:44:06.867Z,65.60
2023-03-05T11:46:16.586Z,64.30
2023-03-05T11:48:27.790Z,65.60
2023-03-05T11:50:36.088Z,65.10
2023-03-05T11:52:48.363Z,63.20
2023-03-05T11:55:05.211Z,63.30
2023-03-05T11:57:14.779Z,64.70
2023-03-05T11:59:31.249Z,66.90
2023-03-05T12:01:45.747Z,66.20
2023-03-05T12:03:52.780Z,64.80
2023-03-05T12:06:04.424Z,65.00
2023-03-05T12:08:15.855Z,64.30
2023-03-05T12:10:23.596Z,64.40
2023-03-05T12:12:40.780Z,64.40
2023-03-05T12:14:58.616Z,63.50
2023-03-05T12:17:14.128Z,64.80
2023-03-05T12:19:45.004Z,64.10
2023-03-05T12:21:55.386Z,62.80
2023-03-05T12:24:04.957Z,64.70
2023-03-05T12:26:10.097Z,65.30
2023-03-05T12:28:18.650Z,66.60
2023-03-05T12:31:00.530Z,67.20
2023-03-05T12:33:08.633Z,67.80
2023-03-05T12:35:28.175Z,67.40
2023-03-05T12:40:25.753Z,67.90
2023-03-05T12:43:00.184Z,67.90
2023-03-05T12:45:38.770Z,68.60
2023-03-05T12:47:47.873Z,67.60
2023-03-05T12:49:53.480Z,67.70
2023-03-05T12:52:01.058Z,68.30
2023-03-05T12:54:32.837Z,68.20
2023-03-05T12:56:40.090Z,68.90
2023-03-05T12:58:48.833Z,68.80
2023-03-05T13:01:01.768Z,69.20
2023-03-05T13:03:20.183Z,68.20
2023-03-05T13:05:29.920Z,68.80
2023-03-05T13:07:35.498Z,70.30
2023-03-05T13:09:40.447Z,69.90
2023-03-05T13:11:49.052Z,69.90
2023-03-05T13:13:54.691Z,69.80
2023-03-05T13:16:00.739Z,70.80
2023-03-05T13:18:19.997Z,70.40
2023-03-05T13:20:37.728Z,70.40
2023-03-05T13:22:42.575Z,70.60
2023-03-05T13:24:47.489Z,70.30
2023-03-05T13:26:52.488Z,68.90
2023-03-05T13:29:14.596Z,69.50
2023-03-05T13:31:24.055Z,69.20
2023-03-05T13:33:34.624Z,69.10
2023-03-05T13:35:48.209Z,67.50
2023-03-05T13:37:53.800Z,68.10
2023-03-05T13:40:05.040Z,68.40
2023-03-05T13:42:20.678Z,68.70
2023-03-05T13:44:25.943Z,69.20
2023-03-05T13:46:38.666Z,68.50
2023-03-05T13:48:47.234Z,68.50
2023-03-05T13:50:58.457Z,69.40
2023-03-05T13:53:19.678Z,68.50
2023-03-05T13:55:24.864Z,69.70
2023-03-05T13:57:40.887Z,69.30
2023-03-05T13:59:55.984Z,70.10
2023-03-05T14:02:03.199Z,69.30
2023-03-05T14:04:22.333Z,69.00
2023-03-05T14:06:31.326Z,70.30
2023-03-05T14:08:37.349Z,69.50
2023-03-05T14:10:43.947Z,70.10
2023-03-05T14:12:49.137Z,70.10
2023-03-05T14:14:54.649Z,70.50
2023-03-05T14:17:40.012Z,69.50
2023-03-05T14:19:48.288Z,70.00
2023-03-05T14:21:54.199Z,69.10
2023-03-05T14:23:59.119Z,70.30
2023-03-05T14:26:29.783Z,69.70
2023-03-05T14:28:37.221Z,68.70
2023-03-05T14:30:48.347Z,69.10
2023-03-05T14:32:58.852Z,69.40
2023-03-05T14:35:09.339Z,68.90
2023-03-05T14:37:24.459Z,68.90
2023-03-05T14:39:42.518Z,69.40
2023-03-05T14:41:49.057Z,68.80
2023-03-05T14:43:53.963Z,68.50
2023-03-05T14:45:58.975Z,69.20
2023-03-05T14:48:06.303Z,69.70
2023-03-05T14:50:18.866Z,70.30
2023-03-05T14:52:28.252Z,70.80
2023-03-05T14:54:38.872Z,70.80
2023-03-05T14:56:44.228Z,70.20
2023-03-05T14:58:49.345Z,70.20
2023-03-05T15:00:55.614Z,72.00
2023-03-05T15:03:01.277Z,72.40
2023-03-05T15:07:36.724Z,72.10
2023-03-05T15:09:41.595Z,72.60
2023-03-05T15:11:46.792Z,71.60
2023-03-05T15:13:52.628Z,72.30
2023-03-05T15:15:57.834Z,72.80
2023-03-05T15:18:02.699Z,73.00
2023-03-05T15:20:10.414Z,73.30
2023-03-05T15:22:15.982Z,73.70
2023-03-05T15:24:24.435Z,73.50
2023-03-05T15:26:29.425Z,73.40
2023-03-05T15:28:36.034Z,73.70
2023-03-05T15:30:44.010Z,73.20
2023-03-05T15:32:49.029Z,72.60
2023-03-05T15:34:54.674Z,73.40
2023-03-05T15:36:59.625Z,73.30
2023-03-05T15:39:04.480Z,73.50
2023-03-05T15:41:12.308Z,73.60
2023-03-05T15:43:17.513Z,73.60
2023-03-05T15:45:23.105Z,74.30
2023-03-05T15:47:28.158Z,73.80
2023-03-05T15:49:33.737Z,73.90
2023-03-05T15:51:38.650Z,74.40
2023-03-05T15:53:44.563Z,74.60
2023-03-05T15:55:49.684Z,74.20
2023-03-05T15:57:57.363Z,74.60
2023-03-05T16:00:02.266Z,74.70
2023-03-05T16:02:08.225Z,74.90
2023-03-05T16:04:13.773Z,74.90
2023-03-05T16:06:22.416Z,75.40
2023-03-05T16:08:30.949Z,75.50
2023-03-05T16:10:38.510Z,75.90
2023-03-05T16:12:45.492Z,76.10
2023-03-05T16:14:53.705Z,76.00
2023-03-05T16:17:00.766Z,75.40
2023-03-05T16:19:08.573Z,75.80
2023-03-05T16:21:14.593Z,76.30
2023-03-05T16:25:26.828Z,76.40
2023-03-05T16:27:32.480Z,76.40
2023-03-05T16:29:37.573Z,76.40
2023-03-05T16:31:45.503Z,76.30
2023-03-05T16:33:50.919Z,76.40
2023-03-05T16:36:22.588Z,76.70
2023-03-05T16:38:30.208Z,76.70
2023-03-05T16:41:06.304Z,76.70
2023-03-05T16:43:04.414Z,76.90
2023-03-05T16:45:12.346Z,77.40
2023-03-05T16:47:20.074Z,76.90
2023-03-05T16:49:25.776Z,77.00
2023-03-05T16:53:36.922Z,77.30
2023-03-05T16:55:43.145Z,77.60
2023-03-05T16:57:48.501Z,77.60
2023-03-05T16:59:54.219Z,77.70
2023-03-05T17:01:59.138Z,77.80
2023-03-05T17:04:07.524Z,78.00
2023-03-05T17:06:15.303Z,77.50
2023-03-05T17:08:20.222Z,77.90
2023-03-05T17:10:26.207Z,78.10
2023-03-05T17:12:31.114Z,78.30
2023-03-05T17:14:36.159Z,78.50
2023-03-05T17:16:41.449Z,78.50
2023-03-05T17:18:46.415Z,78.80
2023-03-05T17:20:56.865Z,78.90
2023-03-05T17:23:02.182Z,79.00
2023-03-05T17:25:09.730Z,78.80
2023-03-05T17:27:19.293Z,78.80
2023-03-05T17:29:25.209Z,78.90
2023-03-05T17:31:30.832Z,78.90
2023-03-05T17:33:37.124Z,79.40
2023-03-05T17:35:47.932Z,79.10
2023-03-05T17:37:56.791Z,79.40
2023-03-05T17:40:02.491Z,79.80
2023-03-05T17:42:08.929Z,80.00
2023-03-05T17:44:15.159Z,80.20
2023-03-05T17:46:20.947Z,80.50
2023-03-05T17:48:26.218Z,81.10
2023-03-05T17:50:31.611Z,81.60
2023-03-05T17:52:38.521Z,81.80
2023-03-05T17:54:46.353Z,82.10
2023-03-05T17:56:56.219Z,82.20
2023-03-05T17:59:02.662Z,82.40
2023-03-05T18:01:09.723Z,82.20
2023-03-05T18:03:18.167Z,82.40
2023-03-05T18:05:27.173Z,82.70
2023-03-05T18:07:33.205Z,82.60
2023-03-05T18:09:38.503Z,82.90
2023-03-05T18:11:46.467Z,83.20
2023-03-05T18:13:51.542Z,83.20
2023-03-05T18:16:00.428Z,83.10
2023-03-05T18:18:05.696Z,83.40
2023-03-05T18:20:18.173Z,83.20
2023-03-05T18:22:24.185Z,83.40
2023-03-05T18:24:29.219Z,83.00
2023-03-05T18:26:35.250Z,82.80
2023-03-05T18:28:43.489Z,83.30
2023-03-05T18:30:49.592Z,83.30
2023-03-05T18:32:55.804Z,83.40
2023-03-05T18:35:01.518Z,83.30
2023-03-05T18:37:06.630Z,83.40
2023-03-05T18:39:16.580Z,83.60
2023-03-05T18:41:27.665Z,83.50
2023-03-05T18:43:35.217Z,82.80
2023-03-05T18:45:43.341Z,82.70
2023-03-05T18:47:49.159Z,83.40
2023-03-05T18:49:57.416Z,83.40
2023-03-05T18:52:02.374Z,83.60
2023-03-05T18:54:08.728Z,83.60
2023-03-05T18:56:14.289Z,84.00
2023-03-05T18:58:23.088Z,84.00
2023-03-05T19:00:35.553Z,84.50
2023-03-05T19:02:44.038Z,84.90
2023-03-05T19:04:49.486Z,85.20
2023-03-05T19:06:57.517Z,85.30
2023-03-05T19:09:09.073Z,85.40
2023-03-05T19:11:19.431Z,85.50
2023-03-05T19:13:35.810Z,85.50
2023-03-05T19:15:42.878Z,85.50
2023-03-05T19:17:52.079Z,85.60
2023-03-05T19:20:00.252Z,85.70
2023-03-05T19:22:05.161Z,85.70
2023-03-05T19:24:11.433Z,85.80
2023-03-05T19:26:17.714Z,85.90
2023-03-05T19:28:22.796Z,86.00
2023-03-05T19:30:28.006Z,85.90
2023-03-05T19:32:33.519Z,86.00
2023-03-05T19:34:41.577Z,85.90
2023-03-05T19:36:47.150Z,85.50
2023-03-05T19:38:52.547Z,86.00
2023-03-05T19:40:57.810Z,85.90
2023-03-05T19:43:03.287Z,85.60
2023-03-05T19:45:11.332Z,85.40
2023-03-05T19:47:18.709Z,85.40
2023-03-05T19:49:23.722Z,85.70
2023-03-05T19:51:33.764Z,85.70
2023-03-05T19:53:38.874Z,85.60
2023-03-05T19:55:45.490Z,85.60
2023-03-05T19:57:50.954Z,85.50
2023-03-05T19:59:56.470Z,85.50
2023-03-05T20:02:02.367Z,85.80
2023-03-05T20:04:09.300Z,86.10
2023-03-05T20:06:14.608Z,86.30
2023-03-05T20:08:22.299Z,86.20
2023-03-05T20:10:27.410Z,86.20
2023-03-05T20:12:33.893Z,86.50
2023-03-05T20:14:38.819Z,86.60
2023-03-05T20:16:46.250Z,86.60
2023-03-05T20:18:54.780Z,86.50
2023-03-05T20:21:03.403Z,86.40
2023-03-05T20:23:08.698Z,86.90
2023-03-05T20:25:21.497Z,86.90
2023-03-05T20:27:27.341Z,86.80
2023-03-05T20:29:32.983Z,86.80
2023-03-05T20:31:41.474Z,87.10
2023-03-05T20:33:47.234Z,87.20
2023-03-05T20:35:53.516Z,87.40
2023-03-05T20:38:21.277Z,87.20
2023-03-05T20:40:29.159Z,87.30
2023-03-05T20:42:34.974Z,87.50
2023-03-05T20:44:43.212Z,87.40
2023-03-05T20:46:59.652Z,87.70
2023-03-05T20:49:07.130Z,87.20
2023-03-05T20:51:18.591Z,87.40
2023-03-05T20:53:24.044Z,87.50
2023-03-05T20:55:32.640Z,87.40
2023-03-05T20:57:38.324Z,87.50
2023-03-05T20:59:44.463Z,87.50
2023-03-05T21:01:49.538Z,87.40
2023-03-05T21:03:57.415Z,87.50
2023-03-05T21:06:06.296Z,87.70
2023-03-05T21:08:11.968Z,87.80
2023-03-05T21:10:18.001Z,87.10
2023-03-05T21:12:25.809Z,87.50
2023-03-05T21:14:36.156Z,87.20
2023-03-05T21:16:42.419Z,87.40
2023-03-05T21:18:48.050Z,87.30
2023-03-05T21:20:53.524Z,87.50
2023-03-05T21:25:15.782Z,87.50
2023-03-05T21:27:21.044Z,87.50
2023-03-05T21:29:30.972Z,87.20
2023-03-05T21:31:37.514Z,87.50
2023-03-05T21:33:42.850Z,87.30
2023-03-05T21:35:48.486Z,87.20
2023-03-05T21:37:54.169Z,87.30
2023-03-05T21:39:59.063Z,87.50
2023-03-05T21:42:05.216Z,87.20
2023-03-05T21:44:11.816Z,87.10
2023-03-05T21:46:19.416Z,87.30
2023-03-05T21:48:25.907Z,87.20
2023-03-05T21:50:33.398Z,87.50
2023-03-05T21:52:40.188Z,87.40
2023-03-05T21:54:45.883Z,87.50
2023-03-05T21:56:51.293Z,87.50
2023-03-05T21:58:56.698Z,87.70
2023-03-05T22:01:02.048Z,87.60
2023-03-05T22:03:09.595Z,87.50
2023-03-05T22:05:16.127Z,87.60
2023-03-05T22:07:22.232Z,87.60
2023-03-05T22:09:27.677Z,87.50
2023-03-05T22:11:32.634Z,87.20
2023-03-05T22:13:38.988Z,87.50
2023-03-05T22:15:48.548Z,87.40
2023-03-05T22:17:53.832Z,87.50
2023-03-05T22:20:01.301Z,87.40
2023-03-05T22:22:07.505Z,87.40
2023-03-05T22:24:12.617Z,87.50
2023-03-05T22:26:17.581Z,87.60
2023-03-05T22:28:24.956Z,87.40
2023-03-05T22:30:29.929Z,87.60
2023-03-05T22:32:36.979Z,87.50
2023-03-05T22:34:41.997Z,87.40
2023-03-05T22:36:49.465Z,87.60
2023-03-05T22:38:55.330Z,87.50
2023-03-05T22:41:00.347Z,87.70
2023-03-05T22:43:05.272Z,87.40
2023-03-05T22:45:11.536Z,87.60
2023-03-05T22:47:17.545Z,87.50
2023-03-05T22:49:22.477Z,87.40
2023-03-05T22:51:27.743Z,87.60
2023-03-05T22:53:35.526Z,87.90
2023-03-05T22:55:41.822Z,87.80
2023-03-05T22:57:50.120Z,87.80
2023-03-05T22:59:55.004Z,87.80
2023-03-05T23:02:00.556Z,87.60
2023-03-05T23:04:18.212Z,87.80
2023-03-05T23:06:26.138Z,87.80
2023-03-05T23:08:31.468Z,87.90
2023-03-05T23:10:39.730Z,87.70
2023-03-05T23:12:49.433Z,87.70
2023-03-05T23:14:55.064Z,87.80
2023-03-05T23:17:00.199Z,87.90
2023-03-05T23:19:05.136Z,87.90
2023-03-05T23:21:10.438Z,87.90
2023-03-05T23:23:15.722Z,88.00
2023-03-05T23:25:21.242Z,87.90
2023-03-05T23:27:28.723Z,87.80
2023-03-05T23:29:52.016Z,88.00
2023-03-05T23:31:57.355Z,88.20
2023-03-05T23:34:02.664Z,88.10
2023-03-05T23:36:09.720Z,88.10
2023-03-05T23:38:16.720Z,88.50
2023-03-05T23:40:25.446Z,88.60
2023-03-05T23:42:33.016Z,88.70
2023-03-05T23:44:37.908Z,88.50
2023-03-05T23:46:43.693Z,88.60
2023-03-05T23:48:48.629Z,88.40
2023-03-05T23:50:54.414Z,88.70
2023-03-05T23:53:01.860Z,88.70
2023-03-05T23:55:08.714Z,88.80
2023-03-05T23:57:13.647Z,88.90
2023-03-05T23:59:22.339Z,89.10
